Time;durP1;ratioP1;P1;durP2;ratioP2;P2;SDS_P1;SDS_P2;PMS_P1;PMS_P2;Temp;Humidity;BMP_temperature;BMP_pressure;BME280_temperature;BME280_humidity;BME280_pressure;Samples;Min_cycle;Max_cycle;Signal;HPM_P1;HPM_P2
2021/09/15 00:02:19;;;;;;;15.88;13.58;;;;;;;16.28;91.74;94876.37;1625656;87;21129;-62
2021/09/15 00:04:45;;;;;;;22.85;13.20;;;;;;;16.22;91.68;94879.69;1625008;87;21629;-62
2021/09/15 00:07:12;;;;;;;16.00;12.00;;;;;;;16.20;91.89;94880.80;1628863;87;20999;-62
2021/09/15 00:09:39;;;;;;;17.85;13.55;;;;;;;16.25;92.13;94877.34;1625024;86;21514;-61
2021/09/15 00:12:07;;;;;;;17.05;13.03;;;;;;;16.32;91.86;94881.09;1622728;87;21185;-61
2021/09/15 00:14:34;;;;;;;18.57;13.08;;;;;;;16.32;91.24;94879.10;1622769;87;21209;-62
2021/09/15 00:17:03;;;;;;;12.53;10.75;;;;;;;16.23;90.75;94883.99;1622508;87;20983;-62
2021/09/15 00:19:31;;;;;;;12.50;11.18;;;;;;;16.18;90.77;94879.73;1622333;87;21728;-61
2021/09/15 00:21:58;;;;;;;14.07;12.55;;;;;;;16.10;90.79;94875.19;1625513;87;21015;-62
2021/09/15 00:24:26;;;;;;;17.60;13.10;;;;;;;16.04;90.90;94874.34;1628416;87;21434;-62
2021/09/15 00:26:53;;;;;;;14.85;12.23;;;;;;;16.00;91.02;94879.32;1627527;86;21105;-61
2021/09/15 00:29:20;;;;;;;14.13;11.43;;;;;;;15.96;90.89;94877.36;1625870;87;20980;-62
2021/09/15 00:31:47;;;;;;;13.53;11.50;;;;;;;15.91;91.10;94879.40;1625168;86;21138;-62
2021/09/15 00:34:13;;;;;;;17.15;13.55;;;;;;;15.94;91.36;94872.89;1624162;87;21098;-62
2021/09/15 00:36:41;;;;;;;18.45;14.58;;;;;;;15.98;91.59;94872.09;1620181;87;21082;-62
2021/09/15 00:39:08;;;;;;;18.95;13.28;;;;;;;16.05;91.67;94871.70;1626118;87;21684;-62
2021/09/15 00:41:36;;;;;;;19.25;12.60;;;;;;;16.09;91.25;94873.66;1623588;87;21141;-62
2021/09/15 00:44:09;;;;;;;15.70;11.95;;;;;;;16.06;91.10;94871.84;1629067;87;21451;-61
2021/09/15 00:46:38;;;;;;;14.95;13.00;;;;;;;16.03;91.35;94875.58;1627768;87;21465;-62
2021/09/15 00:49:05;;;;;;;16.05;12.98;;;;;;;16.07;91.95;94869.84;1623064;87;21039;-62
2021/09/15 00:51:38;;;;;;;18.90;13.72;;;;;;;16.13;92.13;94864.51;1624655;87;21170;-61
2021/09/15 00:54:06;;;;;;;16.32;12.13;;;;;;;16.18;91.81;94870.80;1627412;87;21015;-62
2021/09/15 00:56:33;;;;;;;19.02;12.20;;;;;;;16.18;91.78;94868.02;1628174;87;21083;-62
2021/09/15 00:59:00;;;;;;;18.37;12.82;;;;;;;16.20;91.69;94867.52;1625549;87;21082;-63
2021/09/15 01:01:28;;;;;;;19.55;12.68;;;;;;;16.15;91.30;94866.81;1623364;87;21032;-62
2021/09/15 01:03:56;;;;;;;15.93;12.98;;;;;;;16.11;91.43;94869.03;1624364;87;21187;-62
2021/09/15 01:06:25;;;;;;;22.73;11.97;;;;;;;16.09;91.53;94863.94;1623509;87;20983;-62
2021/09/15 01:08:53;;;;;;;12.90;10.60;;;;;;;16.08;91.50;94867.21;1657084;85;21047;-62
2021/09/15 01:11:23;;;;;;;13.95;12.43;;;;;;;16.09;91.56;94863.94;1625298;87;21063;-60
2021/09/15 01:13:54;;;;;;;18.80;13.13;;;;;;;16.07;91.70;94866.44;1622324;86;20999;-60
2021/09/15 01:16:51;;;;;;;15.95;12.45;;;;;;;16.10;91.90;94872.41;1577799;87;21026;-62
2021/09/15 01:19:38;;;;;;;20.70;12.10;;;;;;;16.16;91.66;94867.73;1626471;87;21129;-61
2021/09/15 01:22:25;;;;;;;17.70;12.37;;;;;;;16.22;91.09;94861.64;1623479;87;20996;-62
2021/09/15 01:24:58;;;;;;;14.53;11.28;;;;;;;16.27;90.57;94861.59;1628791;85;21593;-61
2021/09/15 01:27:39;;;;;;;14.30;12.18;;;;;;;16.26;89.96;94860.81;1626317;85;21109;-62
2021/09/15 01:30:22;;;;;;;14.70;12.10;;;;;;;16.17;89.72;94862.94;1624037;86;21186;-61
2021/09/15 01:32:52;;;;;;;12.98;10.43;;;;;;;16.05;89.77;94857.83;1623672;87;21025;-61
2021/09/15 01:35:20;;;;;;;18.55;11.50;;;;;;;15.97;90.10;94859.47;1628571;87;21011;-61
2021/09/15 01:37:47;;;;;;;16.60;12.13;;;;;;;15.93;90.59;94860.89;1623027;87;21058;-61
2021/09/15 01:40:14;;;;;;;15.80;12.82;;;;;;;15.93;91.09;94865.06;1623233;87;21021;-61
2021/09/15 01:42:40;;;;;;;17.30;12.07;;;;;;;15.98;91.29;94858.22;1621043;87;22486;-62
2021/09/15 01:45:11;;;;;;;16.05;11.90;;;;;;;16.04;91.20;94863.84;1621794;87;20982;-61
2021/09/15 01:47:40;;;;;;;38.83;14.70;;;;;;;16.09;91.10;94863.94;1607848;88;21066;-61
2021/09/15 01:50:08;;;;;;;20.85;13.53;;;;;;;16.09;90.57;94854.23;1621441;87;21463;-61
2021/09/15 01:52:35;;;;;;;15.30;12.47;;;;;;;16.08;90.66;94856.86;1622805;87;21515;-61
2021/09/15 01:55:06;;;;;;;13.95;11.57;;;;;;;16.10;90.42;94857.14;1629240;86;21173;-61
2021/09/15 01:57:33;;;;;;;18.07;11.60;;;;;;;16.08;89.86;94855.47;1657887;85;21013;-62
2021/09/15 02:00:09;;;;;;;17.05;12.10;;;;;;;16.00;89.86;94857.12;1628982;85;21575;-62
2021/09/15 02:02:43;;;;;;;13.38;11.97;;;;;;;15.95;90.09;94850.08;1625522;87;21023;-61
2021/09/15 02:05:12;;;;;;;16.32;11.53;;;;;;;15.93;90.25;94847.02;1624081;87;20983;-62
2021/09/15 02:07:40;;;;;;;15.55;11.25;;;;;;;15.88;90.39;94844.29;1627924;86;21180;-62
2021/09/15 02:10:25;;;;;;;13.18;10.58;;;;;;;15.86;90.43;94844.00;1623319;87;21040;-63
2021/09/15 02:12:54;;;;;;;23.00;11.90;;;;;;;15.83;90.76;94841.41;1627967;87;21085;-62
2021/09/15 02:15:21;;;;;;;16.45;12.00;;;;;;;15.84;91.26;94838.17;1624364;87;21029;-61
2021/09/15 02:17:51;;;;;;;13.58;11.73;;;;;;;15.91;91.29;94844.71;1620730;87;21231;-62
2021/09/15 02:20:32;;;;;;;17.05;10.93;;;;;;;15.97;91.19;94846.20;1620873;87;21421;-60
2021/09/15 02:23:03;;;;;;;16.77;11.22;;;;;;;16.00;90.83;94850.79;1622853;85;21022;-61
2021/09/15 02:25:34;;;;;;;16.00;12.07;;;;;;;16.02;90.86;94852.45;1621545;87;21584;-61
2021/09/15 02:28:04;;;;;;;30.45;12.55;;;;;;;16.04;90.65;94849.97;1625214;87;21466;-61
2021/09/15 02:30:38;;;;;;;26.25;12.95;;;;;;;16.05;90.75;94850.11;1626855;86;21054;-61
2021/09/15 02:33:07;;;;;;;23.05;11.50;;;;;;;16.08;90.84;94847.15;1623634;85;22142;-62
2021/09/15 02:35:50;;;;;;;14.33;10.43;;;;;;;16.15;90.63;94850.94;1628679;85;21519;-60
2021/09/15 02:38:25;;;;;;;20.45;11.60;;;;;;;16.17;90.33;94858.16;1626612;86;21034;-63
2021/09/15 02:41:06;;;;;;;17.35;11.90;;;;;;;16.13;90.04;94858.20;1625478;86;21081;-62
2021/09/15 02:43:44;;;;;;;15.55;11.95;;;;;;;16.04;89.99;94857.69;1627352;85;21078;-61
2021/09/15 02:46:18;;;;;;;14.90;11.05;;;;;;;15.95;90.20;94849.44;1625131;86;21225;-61
2021/09/15 02:49:00;;;;;;;12.63;9.80;;;;;;;15.90;90.43;94848.73;1592281;87;21141;-61
2021/09/15 02:51:28;;;;;;;13.60;10.78;;;;;;;15.80;90.18;94843.16;1623063;86;21038;-61
2021/09/15 02:54:06;;;;;;;14.50;11.12;;;;;;;15.66;90.56;94841.13;1624510;85;21062;-62
2021/09/15 02:56:40;;;;;;;14.00;12.33;;;;;;;15.58;91.09;94851.05;1623203;87;21116;-62
2021/09/15 02:59:12;;;;;;;13.70;10.87;;;;;;;15.55;91.42;94847.09;1620972;87;21186;-63
2021/09/15 03:01:56;;;;;;;12.63;10.82;;;;;;;15.51;91.64;94846.53;1606195;87;21078;-60
2021/09/15 03:04:25;;;;;;;22.13;11.40;;;;;;;15.49;92.08;94840.06;1612552;87;21109;-61
2021/09/15 03:06:55;;;;;;;16.12;12.13;;;;;;;15.53;92.32;94839.88;1624518;87;21078;-62
2021/09/15 03:09:23;;;;;;;13.70;11.22;;;;;;;15.57;92.35;94844.61;1622892;87;21035;-61
2021/09/15 03:11:51;;;;;;;14.70;11.08;;;;;;;15.60;92.32;94842.27;1624565;87;21109;-62
2021/09/15 03:14:19;;;;;;;11.38;10.23;;;;;;;15.57;92.12;94845.36;1623972;86;21012;-62
2021/09/15 03:16:48;;;;;;;15.25;10.63;;;;;;;15.55;92.29;94840.92;1614439;87;32883;-62
2021/09/15 03:19:18;;;;;;;17.98;12.15;;;;;;;15.57;92.44;94846.75;1619225;87;21752;-61
2021/09/15 03:21:45;;;;;;;18.23;11.83;;;;;;;15.56;92.51;94844.47;1625504;87;21055;-61
2021/09/15 03:24:13;;;;;;;14.60;11.12;;;;;;;15.54;92.79;94846.32;1628377;87;21086;-61
2021/09/15 03:26:40;;;;;;;13.35;10.53;;;;;;;15.56;92.76;94847.99;1627653;87;21446;-60
2021/09/15 03:29:09;;;;;;;15.48;11.33;;;;;;;15.58;93.01;94853.83;1626470;86;21078;-62
2021/09/15 03:31:36;;;;;;;19.25;13.50;;;;;;;15.62;93.28;94853.04;1627641;87;21514;-61
2021/09/15 03:34:03;;;;;;;15.38;11.45;;;;;;;15.67;93.36;94844.66;1623456;87;21035;-62
2021/09/15 03:36:32;;;;;;;14.53;12.45;;;;;;;15.69;93.00;94851.27;1622427;87;21204;-61
2021/09/15 03:38:59;;;;;;;26.15;12.45;;;;;;;15.68;92.76;94855.28;1620739;86;21629;-62
2021/09/15 03:41:26;;;;;;;19.87;12.80;;;;;;;15.66;92.64;94857.77;1620658;87;21089;-62
2021/09/15 03:43:53;;;;;;;20.20;14.47;;;;;;;15.64;92.74;94854.72;1623245;87;21534;-61
2021/09/15 03:46:20;;;;;;;19.23;13.55;;;;;;;15.61;92.74;94860.44;1622428;87;21091;-62
2021/09/15 03:48:48;;;;;;;23.25;14.03;;;;;;;15.61;93.04;94859.05;1633241;87;21504;-62
2021/09/15 03:51:15;;;;;;;22.85;14.40;;;;;;;15.65;93.12;94861.79;1659916;85;21056;-61
2021/09/15 03:53:42;;;;;;;21.68;15.88;;;;;;;15.68;92.91;94865.59;1630057;87;21203;-61
2021/09/15 03:56:09;;;;;;;22.55;14.98;;;;;;;15.69;92.94;94864.39;1625166;87;21264;-62
2021/09/15 03:58:37;;;;;;;20.92;15.55;;;;;;;15.71;92.95;94861.27;1622840;87;21043;-61
2021/09/15 04:01:03;;;;;;;23.73;13.83;;;;;;;15.72;92.94;94862.79;1630197;87;21543;-61
2021/09/15 04:03:32;;;;;;;16.70;12.70;;;;;;;15.74;92.80;94861.69;1623208;87;21045;-62
2021/09/15 04:06:00;;;;;;;22.07;13.93;;;;;;;15.74;92.77;94859.55;1627711;86;21022;-62
2021/09/15 04:08:27;;;;;;;38.10;18.90;;;;;;;15.73;92.86;94864.31;1624675;87;21276;-62
2021/09/15 04:10:55;;;;;;;31.52;21.12;;;;;;;15.70;92.97;94870.83;1622456;87;21196;-61
2021/09/15 04:13:24;;;;;;;30.12;19.15;;;;;;;15.68;93.31;94862.22;1621958;86;21118;-61
2021/09/15 04:15:51;;;;;;;30.40;18.57;;;;;;;15.73;93.48;94865.70;1624446;86;21007;-61
2021/09/15 04:18:20;;;;;;;39.80;20.27;;;;;;;15.76;93.22;94864.75;1626776;86;21455;-62
2021/09/15 04:20:47;;;;;;;42.00;20.20;;;;;;;15.79;92.99;94860.27;1621817;87;21043;-61
2021/09/15 04:23:24;;;;;;;72.15;21.60;;;;;;;15.84;93.03;94871.47;1619952;86;21077;-61
2021/09/15 04:31:23;;;;;;;21.15;16.10;;;;;;;15.96;92.68;94863.48;1624022;87;20991;-61
2021/09/15 04:33:54;;;;;;;22.82;15.38;;;;;;;16.00;92.48;94865.44;1622523;87;20991;-61
2021/09/15 04:36:21;;;;;;;18.10;14.95;;;;;;;16.05;92.12;94870.31;1622608;87;21009;-62
2021/09/15 04:38:49;;;;;;;22.27;13.85;;;;;;;16.05;91.77;94864.77;1622396;87;21173;-62
2021/09/15 04:41:16;;;;;;;20.50;13.75;;;;;;;16.06;91.71;94862.13;1622344;87;21584;-61
2021/09/15 04:43:43;;;;;;;20.43;15.55;;;;;;;16.07;91.60;94863.66;1622834;87;21093;-61
2021/09/15 04:46:11;;;;;;;19.23;15.58;;;;;;;16.04;91.55;94870.17;1623559;87;21601;-60
2021/09/15 04:48:40;;;;;;;24.20;16.20;;;;;;;15.97;91.58;94878.11;1622049;87;20974;-62
2021/09/15 04:51:07;;;;;;;17.23;13.08;;;;;;;15.89;91.69;94874.95;1622943;86;21839;-60
2021/09/15 04:53:34;;;;;;;16.35;13.80;;;;;;;15.89;91.94;94876.34;1623393;87;21590;-60
2021/09/15 04:56:05;;;;;;;21.77;15.63;;;;;;;15.89;92.15;94881.14;1621973;87;21042;-61
2021/09/15 04:58:32;;;;;;;28.02;15.58;;;;;;;15.89;92.41;94870.79;1624906;87;21542;-62
2021/09/15 05:00:59;;;;;;;27.20;15.95;;;;;;;15.95;92.85;94884.13;1612217;87;20996;-61
2021/09/15 05:03:27;;;;;;;28.77;16.37;;;;;;;16.03;92.99;94881.74;1585850;89;21052;-61
2021/09/15 05:05:54;;;;;;;20.97;13.40;;;;;;;16.14;92.85;94885.50;1558964;91;21082;-62
2021/09/15 05:08:22;;;;;;;22.35;15.25;;;;;;;16.22;92.31;94882.47;1542496;92;21062;-61
2021/09/15 05:10:51;;;;;;;27.95;15.88;;;;;;;16.23;92.15;94882.61;1542464;92;21142;-62
2021/09/15 05:13:19;;;;;;;23.67;16.50;;;;;;;16.28;92.20;94885.34;1556262;91;21039;-64
2021/09/15 05:15:47;;;;;;;23.42;15.50;;;;;;;16.37;91.95;94887.41;1544135;92;21185;-62
2021/09/15 05:18:14;;;;;;;23.05;14.20;;;;;;;16.44;91.64;94889.78;1542539;93;21629;-62
2021/09/15 05:20:42;;;;;;;30.02;16.05;;;;;;;16.50;91.19;94892.02;1542467;91;20990;-63
2021/09/15 05:23:11;;;;;;;34.78;17.95;;;;;;;16.58;90.98;94893.17;1555617;91;21016;-62
2021/09/15 05:25:39;;;;;;;40.63;18.30;;;;;;;16.62;90.39;94897.90;1565259;91;21095;-61
2021/09/15 05:28:07;;;;;;;28.55;15.35;;;;;;;16.62;90.00;94897.29;1550441;91;21246;-62
2021/09/15 05:30:36;;;;;;;28.75;16.60;;;;;;;16.59;89.71;94903.03;1543977;91;21541;-62
2021/09/15 05:33:03;;;;;;;24.60;17.80;;;;;;;16.59;89.37;94901.64;1556426;91;21003;-62
2021/09/15 05:35:30;;;;;;;20.97;15.38;;;;;;;16.58;89.10;94897.34;1551523;91;21161;-64
2021/09/15 05:37:59;;;;;;;25.85;16.02;;;;;;;16.62;88.85;94897.90;1549173;89;21743;-61
2021/09/15 05:40:27;;;;;;;27.13;16.32;;;;;;;16.67;88.56;94894.43;1570269;90;21170;-62
2021/09/15 05:42:53;;;;;;;24.47;15.72;;;;;;;16.68;88.15;94899.52;1566749;90;21276;-61
2021/09/15 05:45:20;;;;;;;25.02;16.57;;;;;;;16.68;88.01;94906.46;1561720;90;21040;-63
2021/09/15 05:47:47;;;;;;;21.12;16.35;;;;;;;16.71;87.98;94906.88;1609881;89;21080;-62
2021/09/15 05:50:14;;;;;;;27.48;17.05;;;;;;;16.76;87.60;94898.49;1589221;89;21096;-61
2021/09/15 05:52:43;;;;;;;21.40;15.50;;;;;;;16.78;87.38;94904.33;1571355;89;22006;-61
2021/09/15 05:55:10;;;;;;;34.18;17.27;;;;;;;16.81;86.91;94904.75;1610403;86;20991;-69
2021/09/15 05:57:41;;;;;;;20.17;16.32;;;;;;;16.83;86.57;94903.64;1605766;87;21077;-60
2021/09/15 06:00:09;;;;;;;29.33;18.50;;;;;;;16.82;86.37;94896.55;1598300;88;21025;-58
2021/09/15 06:02:38;;;;;;;22.25;16.75;;;;;;;16.85;86.40;94899.14;1612595;86;21101;-56
2021/09/15 06:05:08;;;;;;;22.00;16.42;;;;;;;16.92;86.11;94897.97;1605767;88;22069;-62
2021/09/15 06:07:37;;;;;;;17.92;13.40;;;;;;;16.98;85.90;94898.80;1601982;88;21066;-55
2021/09/15 06:10:06;;;;;;;20.85;15.83;;;;;;;17.00;85.52;94896.30;1611076;86;21133;-60
2021/09/15 06:12:33;;;;;;;19.85;17.70;;;;;;;16.95;85.37;94902.56;1616600;86;22667;-62
2021/09/15 06:15:02;;;;;;;24.30;16.67;;;;;;;16.97;85.76;94900.84;1606718;87;21109;-61
2021/09/15 06:17:30;;;;;;;18.25;13.85;;;;;;;17.05;85.51;94892.83;1617062;86;21101;-65
2021/09/15 06:19:57;;;;;;;20.68;13.95;;;;;;;17.13;85.03;94902.30;1628470;86;21549;-58
2021/09/15 06:22:42;;;;;;;26.70;14.65;;;;;;;17.22;84.15;94893.81;1618591;86;21108;-61
2021/09/15 06:25:11;;;;;;;16.15;13.83;;;;;;;17.31;83.86;94900.00;1619479;87;21133;-58
2021/09/15 06:27:41;;;;;;;19.25;14.13;;;;;;;17.34;83.38;94895.52;1620919;87;21538;-60
2021/09/15 06:30:10;;;;;;;19.82;13.28;;;;;;;17.34;83.03;94895.52;1610162;86;21212;-59
2021/09/15 06:32:39;;;;;;;22.87;14.13;;;;;;;17.35;82.58;94895.05;1630337;85;21076;-59
2021/09/15 06:35:08;;;;;;;19.30;12.18;;;;;;;17.39;82.53;94890.03;1613218;87;21085;-58
2021/09/15 06:37:35;;;;;;;19.52;13.48;;;;;;;17.43;82.19;94900.32;1610721;87;21118;-60
2021/09/15 06:40:02;;;;;;;19.73;13.08;;;;;;;17.44;81.50;94900.45;1614577;86;21105;-61
2021/09/15 06:42:28;;;;;;;16.42;12.37;;;;;;;17.46;81.14;94901.37;1611765;87;21151;-61
2021/09/15 06:44:57;;;;;;;29.12;12.65;;;;;;;17.50;80.55;94901.28;1614366;87;21054;-60
2021/09/15 06:47:25;;;;;;;17.90;11.85;;;;;;;17.57;80.10;94900.09;1603243;86;21129;-60
2021/09/15 06:49:53;;;;;;;20.35;14.00;;;;;;;17.62;79.63;94907.77;1615970;86;21600;-57
2021/09/15 06:52:25;;;;;;;14.15;12.20;;;;;;;17.68;79.28;94901.63;1619620;86;21122;-67
2021/09/15 06:54:55;;;;;;;17.90;12.00;;;;;;;17.78;78.96;94905.77;1615588;86;21079;-69
2021/09/15 06:57:22;;;;;;;15.98;9.88;;;;;;;17.87;78.27;94904.23;1618327;87;22030;-64
2021/09/15 06:59:51;;;;;;;25.32;13.22;;;;;;;17.95;77.76;94903.93;1592568;89;21118;-66
2021/09/15 07:02:19;;;;;;;18.20;13.10;;;;;;;17.97;77.00;94898.66;1558553;89;21631;-66
2021/09/15 07:04:45;;;;;;;13.30;12.00;;;;;;;17.98;77.02;94899.55;1625825;86;22062;-65
2021/09/15 07:07:14;;;;;;;19.60;15.85;;;;;;;18.01;76.70;94895.78;1621522;86;21082;-67
2021/09/15 07:09:41;;;;;;;13.50;10.15;;;;;;;18.12;76.31;94906.25;1616593;86;21166;-67
2021/09/15 07:12:10;;;;;;;20.48;12.30;;;;;;;18.23;74.89;94900.16;1607934;87;21100;-64
2021/09/15 07:14:37;;;;;;;14.15;11.50;;;;;;;18.31;74.45;94899.90;1623051;86;21078;-64
2021/09/15 07:17:05;;;;;;;25.65;14.38;;;;;;;18.42;75.00;94908.36;1611950;87;21064;-66
2021/09/15 07:19:32;;;;;;;13.35;11.90;;;;;;;18.49;74.58;94903.08;1628915;87;21914;-66
2021/09/15 07:22:01;;;;;;;16.12;12.07;;;;;;;18.52;74.30;94896.55;1619788;87;21638;-65
2021/09/15 07:24:27;;;;;;;18.75;12.70;;;;;;;18.58;73.91;94906.32;1612452;86;21461;-67
2021/09/15 07:26:54;;;;;;;14.83;12.75;;;;;;;18.61;73.62;94908.14;1602697;88;21127;-67
2021/09/15 07:29:21;;;;;;;13.88;12.43;;;;;;;18.65;73.55;94907.28;1590866;88;21560;-67
2021/09/15 07:31:47;;;;;;;14.50;12.68;;;;;;;18.72;72.77;94904.80;1584525;89;21782;-59
2021/09/15 07:34:14;;;;;;;17.73;13.53;;;;;;;18.78;72.86;94908.39;1580148;89;21098;-69
2021/09/15 07:36:42;;;;;;;27.70;14.00;;;;;;;18.89;72.74;94916.06;1566563;90;21046;-71
2021/09/15 07:39:09;;;;;;;15.35;13.60;;;;;;;18.99;72.25;94915.38;1585729;89;21200;-67
2021/09/15 07:41:36;;;;;;;15.13;12.37;;;;;;;19.09;71.72;94919.50;1567017;89;21075;-66
2021/09/15 07:44:03;;;;;;;23.22;15.65;;;;;;;19.14;71.44;94906.22;1585018;88;21840;-68
2021/09/15 07:46:31;;;;;;;19.37;14.28;;;;;;;19.22;71.18;94908.69;1585980;89;21051;-67
2021/09/15 07:48:59;;;;;;;17.67;13.25;;;;;;;19.29;70.21;94911.64;1549841;90;21113;-67
2021/09/15 07:51:26;;;;;;;16.93;12.95;;;;;;;19.30;69.74;94915.34;1605551;87;21124;-61
2021/09/15 07:53:52;;;;;;;17.52;12.95;;;;;;;19.33;70.42;94917.13;1618175;86;21112;-62
2021/09/15 07:56:19;;;;;;;17.02;13.60;;;;;;;19.32;69.67;94917.00;1612208;87;21552;-67
2021/09/15 07:58:46;;;;;;;18.82;14.18;;;;;;;19.25;69.10;94915.30;1622304;86;21562;-66
2021/09/15 08:01:13;;;;;;;23.50;12.90;;;;;;;19.18;68.83;94917.17;1612583;87;21078;-68
2021/09/15 08:03:40;;;;;;;18.23;13.62;;;;;;;19.10;69.19;94916.84;1608531;87;21069;-63
2021/09/15 08:06:09;;;;;;;15.13;12.20;;;;;;;19.12;69.41;94914.32;1609230;87;21073;-67
2021/09/15 08:08:36;;;;;;;16.05;13.13;;;;;;;19.16;69.10;94921.07;1610150;87;21139;-65
2021/09/15 08:11:04;;;;;;;13.32;11.95;;;;;;;19.11;69.02;94916.98;1611545;86;21630;-65
2021/09/15 08:13:33;;;;;;;14.60;11.28;;;;;;;19.16;68.62;94916.27;1612245;87;21080;-64
2021/09/15 08:16:00;;;;;;;14.30;11.45;;;;;;;19.23;68.93;94913.00;1617542;87;21308;-66
2021/09/15 08:18:28;;;;;;;12.80;11.18;;;;;;;19.36;69.42;94911.94;1618199;87;21030;-68
2021/09/15 08:20:55;;;;;;;14.20;11.83;;;;;;;19.48;68.84;94909.34;1620599;87;21196;-66
2021/09/15 08:23:22;;;;;;;14.15;11.93;;;;;;;19.55;68.22;94911.64;1620686;87;20921;-64
2021/09/15 08:25:48;;;;;;;17.37;13.05;;;;;;;19.61;67.81;94902.69;1615585;86;21278;-65
2021/09/15 08:28:16;;;;;;;12.37;11.08;;;;;;;19.70;68.22;94906.64;1604990;87;21199;-69
2021/09/15 08:30:44;;;;;;;15.10;12.70;;;;;;;19.80;68.18;94902.37;1618813;86;21138;-71
2021/09/15 08:33:11;;;;;;;22.48;13.90;;;;;;;19.91;67.26;94905.18;1616631;87;22396;-63
2021/09/15 08:35:37;;;;;;;17.17;13.13;;;;;;;20.05;67.47;94900.05;1595857;87;21118;-65
2021/09/15 08:38:04;;;;;;;15.10;11.63;;;;;;;20.21;67.51;94896.52;1614198;86;21049;-63
2021/09/15 08:40:32;;;;;;;30.20;12.35;;;;;;;20.33;66.81;94896.65;1612017;86;21044;-68
2021/09/15 08:42:59;;;;;;;19.90;13.25;;;;;;;20.36;66.71;94901.25;1611704;87;21507;-66
2021/09/15 08:45:39;;;;;;;15.13;11.57;;;;;;;20.29;66.32;94899.71;1608249;86;22247;-65
2021/09/15 08:48:06;;;;;;;15.63;12.35;;;;;;;20.20;65.92;94905.52;1609354;87;21625;-68
2021/09/15 08:50:34;;;;;;;17.55;12.47;;;;;;;20.09;65.84;94912.38;1613627;86;21062;-69
2021/09/15 08:53:01;;;;;;;15.10;12.47;;;;;;;19.99;66.44;94899.25;1616238;86;21058;-66
2021/09/15 08:55:28;;;;;;;13.90;12.50;;;;;;;20.00;67.14;94901.39;1612191;86;21600;-64
2021/09/15 08:57:55;;;;;;;15.48;12.07;;;;;;;19.95;66.85;94897.96;1577863;89;21858;-65
2021/09/15 09:00:23;;;;;;;16.48;12.07;;;;;;;19.86;66.86;94894.77;1612241;86;21181;-68
2021/09/15 09:02:51;;;;;;;13.22;11.83;;;;;;;19.79;66.90;94886.88;1606485;86;21432;-68
2021/09/15 09:05:17;;;;;;;15.05;12.95;;;;;;;19.75;66.87;94884.94;1617843;87;22165;-63
2021/09/15 09:07:45;;;;;;;16.57;12.95;;;;;;;19.64;67.08;94883.53;1616263;87;21085;-67
2021/09/15 09:10:15;;;;;;;17.07;12.90;;;;;;;19.63;68.81;94884.02;1620676;87;21157;-65
2021/09/15 09:12:44;;;;;;;16.23;13.25;;;;;;;19.68;68.75;94882.65;1616055;87;22351;-67
2021/09/15 09:15:17;;;;;;;17.95;12.95;;;;;;;19.78;68.17;94879.75;1612898;86;21078;-65
2021/09/15 09:17:47;;;;;;;18.77;13.70;;;;;;;19.87;67.40;94874.56;1611275;87;21505;-66
2021/09/15 09:20:35;;;;;;;12.18;10.85;;;;;;;19.88;67.10;94874.08;1612532;87;21387;-66
2021/09/15 09:23:14;;;;;;;16.00;11.15;;;;;;;19.90;66.96;94864.55;1604151;86;21190;-68
2021/09/15 09:25:51;;;;;;;13.35;11.95;;;;;;;20.06;66.95;94858.27;1610794;87;20966;-67
2021/09/15 09:28:29;;;;;;;14.58;12.33;;;;;;;20.28;67.43;94849.91;1596860;88;21039;-69
2021/09/15 09:31:02;;;;;;;15.63;11.63;;;;;;;20.47;67.14;94853.72;1601350;87;21051;-66
2021/09/15 09:33:31;;;;;;;18.32;15.00;;;;;;;20.58;66.11;94850.94;1611607;87;21011;-64
2021/09/15 09:36:04;;;;;;;16.82;11.90;;;;;;;20.57;65.36;94847.36;1618281;87;21184;-67
2021/09/15 09:38:44;;;;;;;14.38;10.43;;;;;;;20.63;65.01;94847.36;1579831;88;21078;-68
2021/09/15 09:41:19;;;;;;;18.23;10.63;;;;;;;20.71;64.86;94840.75;1610976;86;21566;-65
2021/09/15 09:43:50;;;;;;;11.18;9.75;;;;;;;20.90;64.33;94839.63;1604824;87;21830;-68
2021/09/15 09:46:20;;;;;;;11.63;10.43;;;;;;;21.15;64.56;94837.88;1626344;86;21054;-69
2021/09/15 09:48:56;;;;;;;10.58;9.48;;;;;;;21.45;62.68;94840.20;1574069;89;21098;-67
2021/09/15 09:51:36;;;;;;;12.63;10.50;;;;;;;21.77;61.26;94837.78;1616577;87;21063;-64
2021/09/15 09:54:27;;;;;;;12.20;9.78;;;;;;;22.11;60.84;94830.82;1614559;88;21030;-66
2021/09/15 09:56:58;;;;;;;15.03;10.20;;;;;;;22.52;60.11;94833.61;1611804;87;21602;-68
2021/09/15 09:59:28;;;;;;;13.30;9.20;;;;;;;23.08;58.07;94833.98;1619154;87;21123;-68
2021/09/15 10:01:57;;;;;;;11.60;9.68;;;;;;;23.53;57.08;94831.45;1625267;87;21174;-65
2021/09/15 10:04:25;;;;;;;12.55;9.15;;;;;;;23.98;55.52;94826.13;1607127;88;21061;-67
2021/09/15 10:06:52;;;;;;;11.80;8.80;;;;;;;24.36;54.59;94827.64;1628489;86;21041;-68
2021/09/15 10:09:19;;;;;;;14.87;8.63;;;;;;;24.79;53.22;94821.19;1600694;88;21110;-68
2021/09/15 10:11:46;;;;;;;18.07;9.90;;;;;;;25.24;52.16;94819.10;1609338;87;21087;-68
2021/09/15 10:14:15;;;;;;;10.88;8.00;;;;;;;25.64;51.01;94817.81;1612700;86;21106;-67
2021/09/15 10:16:56;;;;;;;23.47;8.80;;;;;;;25.97;49.73;94808.76;1617957;87;21175;-70
2021/09/15 10:19:31;;;;;;;15.25;7.65;;;;;;;26.28;48.57;94819.09;1617083;86;21065;-70
2021/09/15 10:22:00;;;;;;;8.05;6.30;;;;;;;26.65;48.27;94813.09;1619709;86;21562;-69
2021/09/15 10:24:52;;;;;;;16.87;8.70;;;;;;;27.10;45.77;94815.58;1600376;88;21110;-67
2021/09/15 10:27:21;;;;;;;9.88;6.65;;;;;;;27.40;45.59;94807.32;1568391;87;21434;-70
2021/09/15 10:30:12;;;;;;;9.78;7.08;;;;;;;27.72;43.88;94795.75;1616780;87;21368;-68
2021/09/15 10:32:46;;;;;;;11.28;6.47;;;;;;;27.89;43.85;94797.44;1626860;87;21119;-70
2021/09/15 10:35:13;;;;;;;9.38;6.70;;;;;;;28.36;43.84;94789.33;1615855;88;21131;-68
2021/09/15 10:37:45;;;;;;;13.85;7.58;;;;;;;28.78;42.62;94794.77;1614849;87;21107;-71
2021/09/15 10:40:13;;;;;;;8.70;6.47;;;;;;;29.06;42.35;94787.52;1621856;86;21713;-65
2021/09/15 10:42:46;;;;;;;9.33;5.78;;;;;;;29.36;41.36;94786.84;1623316;87;21247;-65
2021/09/15 10:45:18;;;;;;;7.53;6.05;;;;;;;29.59;39.71;94782.55;1605580;87;21050;-69
2021/09/15 10:47:55;;;;;;;10.58;5.65;;;;;;;29.76;38.93;94786.95;1630802;87;21565;-71
2021/09/15 10:50:34;;;;;;;7.10;6.12;;;;;;;29.90;38.62;94782.66;1631055;86;21135;-67
2021/09/15 10:53:16;;;;;;;13.30;6.30;;;;;;;30.15;38.26;94779.25;1629322;86;21119;-69
2021/09/15 10:55:52;;;;;;;12.78;6.17;;;;;;;30.46;38.48;94777.03;1616000;88;21108;-69
2021/09/15 10:58:25;;;;;;;8.53;5.65;;;;;;;30.78;37.20;94777.01;1628452;87;21593;-69
2021/09/15 11:01:06;;;;;;;8.90;6.87;;;;;;;30.86;36.20;94774.88;1616352;87;21112;-66
2021/09/15 11:03:36;;;;;;;10.50;6.12;;;;;;;30.86;35.87;94773.46;1614536;87;21170;-68
2021/09/15 11:06:12;;;;;;;9.13;6.03;;;;;;;30.92;35.24;94771.13;1626845;86;21872;-70
2021/09/15 11:08:46;;;;;;;6.58;5.87;;;;;;;31.05;35.70;94765.16;1615724;86;21112;-62
2021/09/15 11:11:28;;;;;;;10.78;6.08;;;;;;;31.30;35.45;94758.14;1591920;87;21144;-66
2021/09/15 11:13:59;;;;;;;7.08;5.30;;;;;;;31.67;34.75;94763.36;1572238;89;21356;-69
2021/09/15 11:16:36;;;;;;;6.10;5.50;;;;;;;31.85;33.63;94752.83;1571781;89;21550;-68
2021/09/15 11:19:17;;;;;;;5.08;4.67;;;;;;;31.91;33.71;94747.63;1572268;89;21153;-71
2021/09/15 11:21:54;;;;;;;26.57;6.80;;;;;;;32.10;33.73;94750.61;1597622;87;21018;-70
2021/09/15 11:24:27;;;;;;;6.15;5.08;;;;;;;32.34;34.15;94744.05;1614875;87;21510;-69
2021/09/15 11:27:06;;;;;;;15.93;6.00;;;;;;;32.61;33.83;94740.53;1613710;87;21611;-69
2021/09/15 11:29:53;;;;;;;6.50;5.22;;;;;;;32.69;32.75;94735.48;1609062;86;21219;-69
2021/09/15 11:32:23;;;;;;;8.35;6.20;;;;;;;32.72;32.47;94729.36;1602006;87;22702;-72
2021/09/15 11:34:52;;;;;;;10.72;6.42;;;;;;;32.82;32.48;94730.13;1595584;87;21068;-68
2021/09/15 11:37:27;;;;;;;7.28;5.58;;;;;;;32.94;31.79;94734.63;1609898;87;28250;-69
2021/09/15 11:39:59;;;;;;;9.25;5.78;;;;;;;33.00;31.86;94732.23;1613139;87;21125;-69